Watertown, Tennessee
Current Conditions -  °F | °C
As of 9:53 AM on Friday 24 Oct 2014 (Local Time) from KBNA Reporting Station
Few Clouds Few Clouds  
Wind Chill: 59°   Ceiling: Unl
Heat Index: 59°   Visibility: 10mi
Dew Point: 45°   Wind: 0mph
Humidity: 60%   Direction: NA
Pressure: 30.15"   Gusts: NA
Location:  36.1°N, 86.13°W
Report Text: KBNA 241453Z 00000KT 10SM FEW120 15/07 A3015 RMK AO2 SLP206 T01500072 51005
Loading
Personal Weather Stations






























Interactive Weather Map
Tropical Storm Tracking
New forecast layout! Learn more

10-Day Weather Forecast

Advertisements
Track Severe Weather on mobile